createdAt,value
2022-09-07T00:05:00.688Z,95556.94
2022-09-07T00:10:03.924Z,95556.44
2022-09-07T00:15:09.405Z,95569.47
2022-09-07T00:20:12.390Z,95562.66
2022-09-07T00:25:15.530Z,95564.41
2022-09-07T00:30:18.835Z,95566.59
2022-09-07T00:35:22.465Z,95566.13
2022-09-07T00:40:25.257Z,95557.16
2022-09-07T00:45:28.046Z,95557.56
2022-09-07T00:50:30.922Z,95562.91
2022-09-07T00:55:33.675Z,95549.28
2022-09-07T01:00:36.701Z,95560.03
2022-09-07T01:05:39.572Z,95567.41
2022-09-07T01:10:42.375Z,95560.19
2022-09-07T01:15:45.293Z,95558.59
2022-09-07T01:20:50.470Z,95560.34
2022-09-07T01:25:53.399Z,95560.38
2022-09-07T01:30:56.731Z,95567.03
2022-09-07T01:35:59.762Z,95571.25
2022-09-07T01:41:02.558Z,95568.88
2022-09-07T01:46:05.451Z,95574.47
2022-09-07T01:51:08.232Z,95567.31
2022-09-07T01:56:10.997Z,95562.16
2022-09-07T02:01:13.821Z,95553.59
2022-09-07T02:06:16.662Z,95569.25
2022-09-07T02:11:19.431Z,95576.25
2022-09-07T02:16:22.375Z,95566.16
2022-09-07T02:21:27.641Z,95564.84
2022-09-07T02:26:30.484Z,95561.00
2022-09-07T02:31:33.305Z,95561.81
2022-09-07T02:36:36.088Z,95557.94
2022-09-07T02:41:39.506Z,95552.88
2022-09-07T02:46:42.327Z,95558.50
2022-09-07T02:51:45.125Z,95558.31
2022-09-07T02:56:47.922Z,95556.91
2022-09-07T03:01:50.712Z,95548.44
2022-09-07T03:06:53.593Z,95540.78
2022-09-07T03:11:56.400Z,95538.13
2022-09-07T03:16:59.291Z,95541.66
2022-09-07T03:22:02.118Z,95536.31
2022-09-07T03:27:05.110Z,95546.56
2022-09-07T03:32:07.998Z,95568.72
2022-09-07T03:37:11.321Z,95571.59
2022-09-07T03:42:14.215Z,95562.81
2022-09-07T03:47:17.073Z,95556.22
2022-09-07T03:52:19.905Z,95555.59
2022-09-07T03:57:22.768Z,95562.50
2022-09-07T04:02:26.734Z,95567.44
2022-09-07T04:07:29.658Z,95571.56
2022-09-07T04:12:32.449Z,95567.03
2022-09-07T04:17:37.221Z,95558.88
2022-09-07T04:22:40.097Z,95557.94
2022-09-07T04:27:43.038Z,95572.47
2022-09-07T04:32:46.157Z,95571.25
2022-09-07T04:37:50.186Z,95575.09
2022-09-07T04:42:52.986Z,95579.56
2022-09-07T04:47:55.874Z,95569.94
2022-09-07T04:52:58.676Z,95563.19
2022-09-07T04:58:01.529Z,95569.72
2022-09-07T05:03:04.433Z,95572.75
2022-09-07T05:08:07.306Z,95582.59
2022-09-07T05:13:10.194Z,95586.31
2022-09-07T05:18:13.098Z,95580.75
2022-09-07T05:23:16.981Z,95588.13
2022-09-07T05:28:19.749Z,95586.00
2022-09-07T05:33:22.812Z,95594.53
2022-09-07T05:38:25.730Z,95605.06
2022-09-07T05:43:28.536Z,95608.84
2022-09-07T05:48:31.374Z,95623.91
2022-09-07T05:53:34.381Z,95624.25
2022-09-07T05:58:37.300Z,95641.13
2022-09-07T06:03:40.202Z,95645.25
2022-09-07T06:08:43.082Z,95650.03
2022-09-07T06:13:46.010Z,95673.59
2022-09-07T06:18:49.011Z,95676.09
2022-09-07T06:23:51.901Z,95679.47
2022-09-07T06:28:57.776Z,95680.09
2022-09-07T06:34:06.820Z,95680.47
2022-09-07T06:39:09.605Z,95675.53
2022-09-07T06:44:12.524Z,95668.81
2022-09-07T06:49:15.356Z,95674.94
2022-09-07T06:59:42.260Z,95675.09
2022-09-07T07:04:46.604Z,95678.66
2022-09-07T07:09:49.541Z,95673.84
2022-09-07T07:14:52.346Z,95668.97
2022-09-07T07:19:55.220Z,95675.53
2022-09-07T07:24:57.961Z,95677.59
2022-09-07T07:30:00.774Z,95683.38
2022-09-07T07:35:03.517Z,95688.81
2022-09-07T07:50:39.361Z,95679.56
2022-09-07T07:55:43.664Z,95675.47
2022-09-07T08:00:55.802Z,95684.84
2022-09-07T08:05:59.186Z,95674.25
2022-09-07T08:11:01.941Z,95677.28
2022-09-07T08:16:05.680Z,95666.59
2022-09-07T08:21:08.777Z,95672.16
2022-09-07T08:26:11.634Z,95674.06
2022-09-07T08:31:14.642Z,95674.84
2022-09-07T08:36:17.818Z,95672.66
2022-09-07T08:41:20.592Z,95660.56
2022-09-07T08:46:23.328Z,95655.06
2022-09-07T08:51:26.189Z,95659.47
2022-09-07T08:56:33.642Z,95663.47
2022-09-07T09:01:37.024Z,95650.72
2022-09-07T09:06:40.382Z,95653.09
2022-09-07T09:11:44.441Z,95656.94
2022-09-07T09:16:47.165Z,95648.13
2022-09-07T09:21:49.899Z,95641.78
2022-09-07T09:26:53.146Z,95639.91
2022-09-07T09:31:56.449Z,95629.22
2022-09-07T09:36:59.192Z,95630.88
2022-09-07T09:42:01.960Z,95626.66
2022-09-07T09:52:29.839Z,95617.34
2022-09-07T09:57:36.506Z,95617.38
2022-09-07T10:08:02.696Z,95616.91
2022-09-07T10:13:08.784Z,95612.56
2022-09-07T10:18:11.570Z,95606.91
2022-09-07T10:23:14.556Z,95607.59
2022-09-07T10:28:17.307Z,95610.88
2022-09-07T10:33:21.059Z,95613.28
2022-09-07T10:38:28.850Z,95619.09
2022-09-07T10:43:31.597Z,95612.63
2022-09-07T10:48:34.774Z,95600.94
2022-09-07T10:54:29.262Z,95597.72
2022-09-07T10:59:02.364Z,95590.25
2022-09-07T11:04:06.017Z,95585.75
2022-09-07T11:09:17.338Z,95566.94
2022-09-07T11:14:20.524Z,95564.13
2022-09-07T11:19:38.483Z,95563.41
2022-09-07T11:24:41.306Z,95550.94
2022-09-07T11:29:44.176Z,95543.09
2022-09-07T11:34:46.917Z,95531.78
2022-09-07T11:39:49.675Z,95538.22
2022-09-07T11:44:52.523Z,95532.44
2022-09-07T11:49:59.193Z,95517.22
2022-09-07T11:55:02.398Z,95526.03
2022-09-07T12:00:06.007Z,95518.19
2022-09-07T12:05:09.992Z,95519.91
2022-09-07T12:10:12.821Z,95516.25
2022-09-07T12:15:15.567Z,95516.84
2022-09-07T12:20:18.397Z,95506.78
2022-09-07T12:25:21.381Z,95516.56
2022-09-07T12:30:24.548Z,95508.59
2022-09-07T12:35:27.322Z,95499.47
2022-09-07T12:40:32.311Z,95492.53
2022-09-07T12:45:35.084Z,95477.97
2022-09-07T12:50:40.135Z,95483.91
2022-09-07T13:01:05.989Z,95467.88
2022-09-07T13:06:09.764Z,95467.31
2022-09-07T13:11:12.613Z,95457.13
2022-09-07T13:16:15.348Z,95448.41
2022-09-07T13:21:18.483Z,95437.47
2022-09-07T13:26:21.351Z,95437.72
2022-09-07T13:31:24.128Z,95429.81
2022-09-07T13:36:26.859Z,95429.06
2022-09-07T13:41:29.562Z,95427.06
2022-09-07T13:46:32.539Z,95426.75
2022-09-07T13:51:36.038Z,95419.56
2022-09-07T13:56:38.959Z,95409.69
2022-09-07T14:01:41.845Z,95404.59
2022-09-07T14:06:45.162Z,95396.31
2022-09-07T14:11:48.105Z,95395.13
2022-09-07T14:16:50.938Z,95390.41
2022-09-07T14:21:53.830Z,95382.50
2022-09-07T14:26:56.691Z,95376.19
2022-09-07T14:31:59.619Z,95368.25
2022-09-07T14:37:02.449Z,95359.88
2022-09-07T14:42:05.310Z,95364.63
2022-09-07T14:47:08.169Z,95366.66
2022-09-07T14:52:11.334Z,95364.28
2022-09-07T14:57:14.178Z,95358.78
2022-09-07T15:02:17.325Z,95348.47
2022-09-07T15:07:21.340Z,95339.41
2022-09-07T15:12:32.992Z,95345.78
2022-09-07T15:17:42.942Z,95339.06
2022-09-07T15:22:46.181Z,95331.16
2022-09-07T15:27:49.814Z,95326.34
2022-09-07T15:32:54.731Z,95336.03
2022-09-07T15:38:01.796Z,95326.25
2022-09-07T15:43:19.276Z,95316.06
2022-09-07T15:48:25.183Z,95324.91
2022-09-07T15:58:54.363Z,95314.22
2022-09-07T16:03:57.449Z,95303.13
2022-09-07T16:09:00.409Z,95293.66
2022-09-07T16:14:03.354Z,95292.66
2022-09-07T16:19:07.332Z,95292.53
2022-09-07T16:24:18.787Z,95288.41
2022-09-07T16:29:21.650Z,95289.47
2022-09-07T16:34:24.480Z,95284.72
2022-09-07T16:39:29.126Z,95288.94
2022-09-07T16:44:32.121Z,95275.44
2022-09-07T16:49:34.914Z,95272.13
2022-09-07T16:54:38.020Z,95266.50
2022-09-07T16:59:40.740Z,95271.88
2022-09-07T17:04:44.249Z,95266.00
2022-09-07T17:09:47.107Z,95252.34
2022-09-07T17:14:50.001Z,95260.78
2022-09-07T17:19:53.289Z,95266.06
2022-09-07T17:24:56.112Z,95265.81
2022-09-07T17:29:59.014Z,95263.31
2022-09-07T17:35:01.946Z,95260.38
2022-09-07T17:40:07.170Z,95267.53
2022-09-07T17:45:11.538Z,95264.53
2022-09-07T17:50:14.426Z,95271.03
2022-09-07T17:55:17.266Z,95265.34
2022-09-07T18:00:20.407Z,95262.84
2022-09-07T18:05:23.377Z,95267.38
2022-09-07T18:10:26.852Z,95266.34
2022-09-07T18:15:29.639Z,95273.69
2022-09-07T18:20:34.343Z,95253.31
2022-09-07T18:25:37.440Z,95250.59
2022-09-07T18:30:42.258Z,95254.91
2022-09-07T18:35:45.147Z,95249.75
2022-09-07T18:40:47.913Z,95261.31
2022-09-07T18:45:51.219Z,95264.19
2022-09-07T18:50:54.231Z,95271.00
2022-09-07T18:55:57.200Z,95258.81
2022-09-07T19:01:00.140Z,95267.00
2022-09-07T19:06:03.741Z,95260.22
2022-09-07T19:11:07.885Z,95267.63
2022-09-07T19:16:12.518Z,95263.94
2022-09-07T19:21:16.895Z,95263.31
2022-09-07T19:26:20.120Z,95280.09
2022-09-07T19:31:23.118Z,95278.25
2022-09-07T19:36:25.952Z,95268.72
2022-09-07T19:41:28.927Z,95265.53
2022-09-07T19:46:32.060Z,95257.59
2022-09-07T19:51:37.519Z,95255.50
2022-09-07T19:56:42.431Z,95257.03
2022-09-07T20:01:47.453Z,95249.03
2022-09-07T20:06:50.552Z,95247.31
2022-09-07T20:11:53.463Z,95242.78
2022-09-07T20:16:56.290Z,95247.25
2022-09-07T20:21:59.213Z,95239.75
2022-09-07T20:27:02.738Z,95225.63
2022-09-07T20:32:05.492Z,95216.22
2022-09-07T20:37:08.337Z,95217.38
2022-09-07T20:42:11.086Z,95205.00
2022-09-07T20:47:15.937Z,95193.53
2022-09-07T20:52:19.067Z,95194.78
2022-09-07T20:57:22.886Z,95190.03
2022-09-07T21:02:25.870Z,95186.16
2022-09-07T21:07:28.772Z,95167.22
2022-09-07T21:12:31.559Z,95154.91
2022-09-07T21:17:34.257Z,95147.28
2022-09-07T21:22:37.171Z,95142.50
2022-09-07T21:27:40.294Z,95145.78
2022-09-07T21:32:43.089Z,95141.50
2022-09-07T21:37:45.768Z,95124.66
2022-09-07T21:42:54.402Z,95118.78
2022-09-07T21:47:57.243Z,95131.16
2022-09-07T21:53:00.041Z,95134.97
2022-09-07T21:58:02.804Z,95122.47
2022-09-07T22:03:06.140Z,95110.41
2022-09-07T22:08:09.903Z,95117.69
2022-09-07T22:13:14.889Z,95137.31
2022-09-07T22:18:17.720Z,95136.41
2022-09-07T22:23:20.417Z,95130.38
2022-09-07T22:28:23.478Z,95108.72
2022-09-07T22:33:26.170Z,95136.41
2022-09-07T22:38:28.963Z,95184.06
2022-09-07T22:43:31.681Z,95192.00
2022-09-07T22:48:34.426Z,95169.78
2022-09-07T22:53:37.134Z,95193.41
2022-09-07T22:58:39.924Z,95202.22
2022-09-07T23:03:42.710Z,95187.69
2022-09-07T23:08:45.534Z,95186.81
2022-09-07T23:13:48.447Z,95172.84
2022-09-07T23:18:51.277Z,95163.25
2022-09-07T23:23:54.333Z,95165.59
2022-09-07T23:28:57.155Z,95162.66
2022-09-07T23:34:00.149Z,95170.22
2022-09-07T23:39:02.850Z,95146.50
2022-09-07T23:44:05.640Z,95136.03
2022-09-07T23:49:08.510Z,95126.34
2022-09-07T23:54:12.679Z,95132.44
2022-09-07T23:59:15.517Z,95163.78
